createdAt,value
2023-04-26T00:01:12.368Z,11.70
2023-04-26T00:03:43.056Z,11.70
2023-04-26T00:06:12.439Z,14.40
2023-04-26T00:08:43.372Z,10.30
2023-04-26T00:11:11.352Z,10.30
2023-04-26T00:13:39.462Z,16.10
2023-04-26T00:16:07.737Z,14.30
2023-04-26T00:18:36.035Z,11.70
2023-04-26T00:21:04.412Z,11.50
2023-04-26T00:23:32.479Z,11.90
2023-04-26T00:26:00.414Z,14.60
2023-04-26T00:28:31.566Z,10.20
2023-04-26T00:30:59.641Z,12.00
2023-04-26T00:33:27.763Z,14.90
2023-04-26T00:35:56.321Z,10.40
2023-04-26T00:38:24.345Z,13.40
2023-04-26T00:40:52.537Z,12.90
2023-04-26T00:43:20.760Z,10.50
2023-04-26T00:45:48.894Z,13.40
2023-04-26T00:48:16.921Z,14.50
2023-04-26T00:50:45.025Z,12.70
2023-04-26T00:53:14.765Z,12.30
2023-04-26T00:55:42.916Z,15.30
2023-04-26T00:58:11.073Z,14.50
2023-04-26T01:00:39.080Z,11.20
2023-04-26T01:03:07.227Z,13.90
2023-04-26T01:05:37.013Z,14.00
2023-04-26T01:08:05.258Z,14.60
2023-04-26T01:10:33.299Z,12.60
2023-04-26T01:13:01.667Z,10.40
2023-04-26T01:15:30.735Z,13.60
2023-04-26T01:17:58.847Z,12.70
2023-04-26T01:20:27.222Z,16.00
2023-04-26T01:22:56.142Z,12.20
2023-04-26T01:25:24.229Z,12.00
2023-04-26T01:27:52.224Z,10.40
2023-04-26T01:30:20.298Z,8.90
2023-04-26T01:32:48.354Z,12.30
2023-04-26T01:35:16.577Z,10.30
2023-04-26T01:37:44.790Z,8.50
2023-04-26T01:40:13.371Z,10.60
2023-04-26T01:42:41.623Z,6.20
2023-04-26T01:45:09.921Z,10.40
2023-04-26T01:47:56.636Z,8.50
2023-04-26T01:50:24.803Z,9.60
2023-04-26T01:52:52.870Z,7.50
2023-04-26T01:55:20.900Z,9.20
2023-04-26T01:57:49.012Z,8.30
2023-04-26T02:00:17.183Z,10.20
2023-04-26T02:02:45.367Z,8.70
2023-04-26T02:05:13.521Z,8.30
2023-04-26T02:07:41.656Z,5.20
2023-04-26T02:10:09.810Z,7.70
2023-04-26T02:12:37.833Z,8.80
2023-04-26T02:15:07.082Z,10.60
2023-04-26T02:17:37.844Z,5.60
2023-04-26T02:20:07.542Z,7.30
2023-04-26T02:22:35.675Z,10.30
2023-04-26T02:25:03.844Z,7.30
2023-04-26T02:27:33.038Z,7.40
2023-04-26T02:30:02.266Z,9.90
2023-04-26T02:32:30.810Z,7.40
2023-04-26T02:34:58.888Z,12.00
2023-04-26T02:37:27.372Z,10.60
2023-04-26T02:39:56.139Z,12.30
2023-04-26T02:42:25.178Z,10.10
2023-04-26T02:44:53.192Z,8.00
2023-04-26T02:47:21.267Z,10.10
2023-04-26T02:49:49.763Z,11.90
2023-04-26T02:52:17.981Z,10.60
2023-04-26T02:54:45.995Z,9.20
2023-04-26T02:57:13.979Z,6.00
2023-04-26T02:59:42.175Z,8.50
2023-04-26T03:02:10.476Z,9.40
2023-04-26T03:04:38.705Z,6.70
2023-04-26T03:07:06.841Z,8.90
2023-04-26T03:09:35.046Z,6.50
2023-04-26T03:12:03.453Z,9.50
2023-04-26T03:14:32.240Z,7.90
2023-04-26T03:17:00.766Z,11.90
2023-04-26T03:19:28.897Z,9.20
2023-04-26T03:21:57.457Z,11.50
2023-04-26T03:24:25.606Z,7.10
2023-04-26T03:26:53.752Z,10.00
2023-04-26T03:29:21.765Z,9.40
2023-04-26T03:31:49.803Z,6.60
2023-04-26T03:34:17.852Z,7.90
2023-04-26T03:36:46.080Z,11.40
2023-04-26T03:39:14.104Z,5.80
2023-04-26T03:41:42.171Z,8.90
2023-04-26T03:44:12.655Z,4.50
2023-04-26T03:46:40.753Z,11.80
2023-04-26T03:49:08.836Z,7.40
2023-04-26T03:51:37.189Z,7.40
2023-04-26T03:54:05.479Z,9.50
2023-04-26T03:56:33.687Z,8.30
2023-04-26T03:59:02.486Z,7.30
2023-04-26T04:01:30.597Z,9.20
2023-04-26T04:03:58.935Z,8.50
2023-04-26T04:06:27.556Z,7.90
2023-04-26T04:08:55.769Z,8.20
2023-04-26T04:11:24.535Z,10.70
2023-04-26T04:13:52.749Z,6.30
2023-04-26T04:16:20.823Z,8.70
2023-04-26T04:18:48.866Z,11.00
2023-04-26T04:21:16.884Z,7.20
2023-04-26T04:23:45.177Z,7.60
2023-04-26T04:26:14.486Z,8.60
2023-04-26T04:28:42.920Z,5.70
2023-04-26T04:31:11.584Z,9.00
2023-04-26T04:33:40.047Z,7.70
2023-04-26T04:36:09.867Z,5.60
2023-04-26T04:38:37.988Z,9.40
2023-04-26T04:41:08.660Z,8.40
2023-04-26T04:43:37.411Z,6.70
2023-04-26T04:46:05.563Z,7.80
2023-04-26T04:48:35.791Z,8.20
2023-04-26T04:51:04.009Z,11.40
2023-04-26T04:53:32.135Z,7.20
2023-04-26T04:56:00.204Z,9.30
2023-04-26T04:58:29.050Z,10.80
2023-04-26T05:01:01.366Z,5.50
2023-04-26T05:03:34.338Z,8.40
2023-04-26T05:06:04.062Z,7.70
2023-04-26T05:08:32.235Z,5.90
2023-04-26T05:11:03.888Z,7.90
2023-04-26T05:13:32.036Z,7.20
2023-04-26T05:16:01.214Z,10.60
2023-04-26T05:18:29.437Z,8.50
2023-04-26T05:20:58.116Z,8.60
2023-04-26T05:23:26.816Z,5.70
2023-04-26T05:25:54.882Z,4.90
2023-04-26T05:28:45.945Z,6.30
2023-04-26T05:31:34.321Z,11.40
2023-04-26T05:34:10.960Z,6.90
2023-04-26T05:36:40.888Z,6.00
2023-04-26T05:39:09.293Z,8.50
2023-04-26T05:41:37.322Z,6.90
2023-04-26T05:44:05.344Z,8.40
2023-04-26T05:46:33.562Z,6.60
2023-04-26T05:49:01.928Z,7.70
2023-04-26T05:51:30.064Z,7.40
2023-04-26T05:53:58.284Z,7.20
2023-04-26T05:56:26.627Z,7.00
2023-04-26T05:58:54.703Z,6.30
2023-04-26T06:01:22.709Z,5.60
2023-04-26T06:03:51.713Z,5.70
2023-04-26T06:06:21.991Z,9.10
2023-04-26T06:08:50.166Z,8.40
2023-04-26T06:11:18.190Z,7.00
2023-04-26T06:13:46.299Z,5.20
2023-04-26T06:16:15.697Z,5.20
2023-04-26T06:18:44.080Z,8.90
2023-04-26T06:21:13.397Z,5.30
2023-04-26T06:23:41.417Z,7.10
2023-04-26T06:26:09.445Z,6.30
2023-04-26T06:28:38.284Z,5.80
2023-04-26T06:31:07.261Z,7.00
2023-04-26T06:33:35.361Z,5.80
2023-04-26T06:36:03.783Z,5.50
2023-04-26T06:38:31.791Z,7.10
2023-04-26T06:41:00.161Z,10.50
2023-04-26T06:43:28.394Z,7.10
2023-04-26T06:46:19.486Z,6.30
2023-04-26T06:48:56.386Z,6.00
2023-04-26T06:51:27.255Z,7.40
2023-04-26T06:53:58.016Z,5.90
2023-04-26T06:56:26.096Z,8.00
2023-04-26T06:59:04.562Z,4.70
2023-04-26T07:01:34.176Z,5.20
2023-04-26T07:04:08.295Z,5.30
2023-04-26T07:06:39.942Z,4.40
2023-04-26T07:09:08.729Z,5.60
2023-04-26T07:11:36.909Z,3.70
2023-04-26T07:14:05.499Z,5.30
2023-04-26T07:16:33.848Z,7.10
2023-04-26T07:19:01.896Z,9.00
2023-04-26T07:21:29.908Z,7.10
2023-04-26T07:23:58.225Z,7.10
2023-04-26T07:26:27.005Z,9.00
2023-04-26T07:28:54.968Z,4.40
2023-04-26T07:31:22.980Z,4.20
2023-04-26T07:33:51.361Z,5.60
2023-04-26T07:36:19.762Z,6.40
2023-04-26T07:38:47.762Z,5.50
2023-04-26T07:41:17.722Z,5.60
2023-04-26T07:43:45.738Z,5.80
2023-04-26T07:46:14.058Z,7.60
2023-04-26T07:48:42.198Z,6.10
2023-04-26T07:51:11.126Z,8.30
2023-04-26T07:53:39.661Z,5.50
2023-04-26T07:56:08.167Z,8.80
2023-04-26T07:58:37.191Z,5.20
2023-04-26T08:01:07.152Z,5.30
2023-04-26T08:03:35.573Z,6.50
2023-04-26T08:06:04.227Z,5.50
2023-04-26T08:08:33.585Z,16.10
2023-04-26T08:11:01.709Z,6.20
2023-04-26T08:13:29.793Z,4.80
2023-04-26T08:15:57.792Z,5.90
2023-04-26T08:18:25.911Z,4.90
2023-04-26T08:20:55.664Z,5.90
2023-04-26T08:23:23.757Z,5.40
2023-04-26T08:25:52.508Z,3.90
2023-04-26T08:28:21.342Z,3.20
2023-04-26T08:30:49.399Z,6.90
2023-04-26T08:33:18.160Z,4.70
2023-04-26T08:35:46.250Z,6.30
2023-04-26T08:38:14.308Z,4.40
2023-04-26T08:40:42.300Z,4.10
2023-04-26T08:43:10.296Z,9.90
2023-04-26T08:45:38.714Z,7.60
2023-04-26T08:48:10.877Z,7.30
2023-04-26T08:50:39.120Z,4.70
2023-04-26T08:53:07.383Z,6.60
2023-04-26T08:55:36.445Z,6.70
2023-04-26T08:58:04.616Z,5.70
2023-04-26T09:00:34.707Z,4.90
2023-04-26T09:03:03.024Z,6.40
2023-04-26T09:05:31.072Z,6.10
2023-04-26T09:08:02.256Z,6.00
2023-04-26T09:10:30.629Z,7.40
2023-04-26T09:12:58.651Z,5.90
2023-04-26T09:15:27.965Z,4.50
2023-04-26T09:17:56.206Z,6.10
2023-04-26T09:20:28.072Z,4.10
2023-04-26T09:23:07.283Z,6.90
2023-04-26T09:25:35.389Z,9.40
2023-04-26T09:28:04.500Z,2.90
2023-04-26T09:30:38.444Z,5.70
2023-04-26T09:33:09.543Z,5.30
2023-04-26T09:35:42.803Z,6.70
2023-04-26T09:38:15.222Z,6.50
2023-04-26T09:40:47.447Z,4.00
2023-04-26T09:43:19.765Z,5.20
2023-04-26T09:45:50.696Z,9.20
2023-04-26T09:48:30.586Z,4.30
2023-04-26T09:51:04.816Z,5.50
2023-04-26T09:53:37.725Z,4.80
2023-04-26T09:56:19.642Z,6.50
2023-04-26T09:58:47.765Z,7.40
2023-04-26T10:01:18.168Z,6.20
2023-04-26T10:03:48.726Z,5.20
2023-04-26T10:06:17.018Z,3.60
2023-04-26T10:08:45.765Z,3.70
2023-04-26T10:11:14.080Z,6.30
2023-04-26T10:13:43.131Z,4.00
2023-04-26T10:16:11.870Z,3.30
2023-04-26T10:18:40.075Z,6.50
2023-04-26T10:21:22.718Z,5.00
2023-04-26T10:23:52.581Z,6.40
2023-04-26T10:26:57.328Z,3.50
2023-04-26T10:29:26.327Z,3.90
2023-04-26T10:32:10.954Z,6.40
2023-04-26T10:34:38.994Z,5.90
2023-04-26T10:37:12.035Z,4.00
2023-04-26T10:39:41.228Z,7.80
2023-04-26T10:42:30.412Z,5.80
2023-04-26T10:44:59.320Z,2.70
2023-04-26T10:47:35.648Z,6.80
2023-04-26T10:50:09.261Z,6.80
2023-04-26T10:52:39.290Z,10.10
2023-04-26T10:55:08.542Z,7.90
2023-04-26T10:57:50.682Z,5.20
2023-04-26T11:00:21.303Z,8.90
2023-04-26T11:02:53.143Z,5.50
2023-04-26T11:05:51.104Z,2.50
2023-04-26T11:08:28.111Z,8.30
2023-04-26T11:10:59.146Z,5.10
2023-04-26T11:13:27.523Z,4.60
2023-04-26T11:16:00.723Z,4.00
2023-04-26T11:18:28.680Z,6.60
2023-04-26T11:20:58.020Z,3.80
2023-04-26T11:23:30.254Z,5.00
2023-04-26T11:25:59.554Z,4.00
2023-04-26T11:28:27.562Z,3.30
2023-04-26T11:30:56.284Z,5.40
2023-04-26T11:33:24.279Z,3.20
2023-04-26T11:35:53.077Z,5.30
2023-04-26T11:38:25.014Z,6.60
2023-04-26T11:41:03.257Z,4.80
2023-04-26T11:43:38.157Z,6.50
2023-04-26T11:46:07.562Z,3.90
2023-04-26T11:48:36.327Z,3.40
2023-04-26T11:51:06.962Z,3.80
2023-04-26T11:53:42.772Z,4.40
2023-04-26T11:56:18.476Z,5.60
2023-04-26T11:58:48.893Z,3.80
2023-04-26T12:01:21.341Z,5.10
2023-04-26T12:03:53.953Z,4.20
2023-04-26T12:06:44.420Z,4.70
2023-04-26T12:09:13.200Z,6.20
2023-04-26T12:11:41.403Z,2.20
2023-04-26T12:14:10.219Z,4.10
2023-04-26T12:16:38.689Z,3.30
2023-04-26T12:19:07.713Z,3.00
2023-04-26T12:21:45.180Z,3.50
2023-04-26T12:24:23.494Z,3.80
2023-04-26T12:26:51.614Z,3.10
2023-04-26T12:29:19.811Z,7.10
2023-04-26T12:31:50.367Z,6.50
2023-04-26T12:34:18.641Z,5.10
2023-04-26T12:36:46.654Z,3.20
2023-04-26T12:39:15.874Z,4.10
2023-04-26T12:41:44.080Z,5.30
2023-04-26T12:44:12.289Z,5.60
2023-04-26T12:46:40.738Z,3.70
2023-04-26T12:49:10.052Z,4.00
2023-04-26T12:51:39.294Z,6.90
2023-04-26T12:54:08.077Z,3.70
2023-04-26T12:56:41.115Z,5.50
2023-04-26T12:59:09.748Z,6.90
2023-04-26T13:01:37.870Z,2.90
2023-04-26T13:04:06.807Z,5.40
2023-04-26T13:06:35.483Z,5.20
2023-04-26T13:09:03.951Z,4.10
2023-04-26T13:11:32.200Z,2.90
2023-04-26T13:14:00.229Z,5.30
2023-04-26T13:16:29.719Z,1.80
2023-04-26T13:18:58.115Z,4.10
2023-04-26T13:21:26.522Z,6.00
2023-04-26T13:23:54.582Z,5.50
2023-04-26T13:26:24.387Z,3.60
2023-04-26T13:28:53.384Z,3.50
2023-04-26T13:31:22.144Z,3.70
2023-04-26T13:33:50.580Z,4.90
2023-04-26T13:36:18.671Z,3.20
2023-04-26T13:38:46.946Z,3.50
2023-04-26T13:41:15.688Z,4.40
2023-04-26T13:43:43.681Z,16.80
2023-04-26T13:46:12.586Z,4.50
2023-04-26T13:48:43.286Z,4.40
2023-04-26T13:51:11.918Z,5.10
2023-04-26T13:53:39.891Z,4.60
2023-04-26T13:56:09.691Z,6.00
2023-04-26T13:58:37.792Z,4.80
2023-04-26T14:01:06.229Z,5.90
2023-04-26T14:03:35.298Z,4.90
2023-04-26T14:06:04.515Z,5.50
2023-04-26T14:08:33.008Z,4.00
2023-04-26T14:11:01.424Z,4.90
2023-04-26T14:13:29.402Z,4.60
2023-04-26T14:15:57.442Z,3.70
2023-04-26T14:18:25.483Z,4.80
2023-04-26T14:20:53.464Z,5.20
2023-04-26T14:23:21.552Z,4.10
2023-04-26T14:25:53.179Z,7.00
2023-04-26T14:28:21.509Z,3.60
2023-04-26T14:30:49.863Z,3.90
2023-04-26T14:33:18.404Z,2.80
2023-04-26T14:35:47.104Z,5.30
2023-04-26T14:38:15.596Z,3.50
2023-04-26T14:40:45.390Z,1.40
2023-04-26T14:43:14.095Z,3.60
2023-04-26T14:45:44.598Z,8.20
2023-04-26T14:48:13.634Z,4.30
2023-04-26T14:50:41.930Z,2.20
2023-04-26T14:53:10.589Z,4.90
2023-04-26T14:55:39.223Z,3.50
2023-04-26T14:58:08.091Z,3.90
2023-04-26T15:00:36.327Z,2.80
2023-04-26T15:03:04.902Z,2.80
2023-04-26T15:05:33.267Z,4.80
2023-04-26T15:08:01.529Z,2.80
2023-04-26T15:10:29.840Z,2.50
2023-04-26T15:12:57.891Z,5.10
2023-04-26T15:15:26.152Z,5.80
2023-04-26T15:17:54.299Z,4.90
2023-04-26T15:20:22.653Z,2.70
2023-04-26T15:22:51.102Z,4.50
2023-04-26T15:25:19.342Z,4.80
2023-04-26T15:27:47.647Z,5.50
2023-04-26T15:30:15.821Z,4.00
2023-04-26T15:32:48.403Z,3.40
2023-04-26T15:35:17.162Z,3.60
2023-04-26T15:37:45.669Z,3.30
2023-04-26T15:40:13.749Z,5.80
2023-04-26T15:42:41.756Z,7.10
2023-04-26T15:45:10.320Z,3.10
2023-04-26T15:47:38.441Z,5.80
2023-04-26T15:50:08.327Z,3.90
2023-04-26T15:52:39.261Z,7.00
2023-04-26T15:55:08.088Z,2.50
2023-04-26T15:57:36.364Z,6.30
2023-04-26T16:00:08.452Z,5.90
2023-04-26T16:02:37.430Z,5.40
2023-04-26T16:05:08.546Z,5.90
2023-04-26T16:07:38.964Z,5.10
2023-04-26T16:10:09.465Z,5.80
2023-04-26T16:12:39.708Z,7.10
2023-04-26T16:15:09.885Z,10.60
2023-04-26T16:17:38.216Z,5.40
2023-04-26T16:20:07.608Z,3.40
2023-04-26T16:22:35.962Z,8.00
2023-04-26T16:25:07.221Z,5.50
2023-04-26T16:27:35.858Z,7.40
2023-04-26T16:30:04.255Z,5.90
2023-04-26T16:32:32.385Z,5.60
2023-04-26T16:35:00.907Z,5.50
2023-04-26T16:37:29.000Z,5.10
2023-04-26T16:39:57.428Z,5.80
2023-04-26T16:42:26.538Z,5.20
2023-04-26T16:44:55.044Z,3.30
2023-04-26T16:47:23.290Z,3.60
2023-04-26T16:49:51.333Z,7.30
2023-04-26T16:52:19.566Z,3.40
2023-04-26T16:54:47.811Z,4.10
2023-04-26T16:57:16.656Z,4.40
2023-04-26T16:59:44.862Z,6.90
2023-04-26T17:02:14.293Z,4.70
2023-04-26T17:04:42.830Z,3.30
2023-04-26T17:07:13.544Z,3.80
2023-04-26T17:09:42.014Z,4.60
2023-04-26T17:12:10.471Z,3.80
2023-04-26T17:14:38.609Z,6.00
2023-04-26T17:17:06.747Z,4.40
2023-04-26T17:19:34.977Z,5.90
2023-04-26T17:22:03.519Z,4.60
2023-04-26T17:24:31.980Z,5.60
2023-04-26T17:27:00.308Z,4.80
2023-04-26T17:29:28.479Z,6.10
2023-04-26T17:31:56.639Z,3.50
2023-04-26T17:34:24.686Z,6.50
2023-04-26T17:36:53.238Z,5.80
2023-04-26T17:39:21.524Z,6.10
2023-04-26T17:41:51.477Z,7.90
2023-04-26T17:44:19.502Z,6.70
2023-04-26T17:46:50.509Z,6.90
2023-04-26T17:49:19.113Z,5.40
2023-04-26T17:51:47.296Z,3.60
2023-04-26T17:54:25.542Z,7.60
2023-04-26T17:56:54.073Z,4.90
2023-04-26T17:59:22.354Z,4.90
2023-04-26T18:01:50.763Z,7.10
2023-04-26T18:04:18.947Z,8.60
2023-04-26T18:06:47.759Z,6.70
2023-04-26T18:09:16.142Z,13.40
2023-04-26T18:11:48.313Z,11.80
2023-04-26T18:14:16.511Z,8.60
2023-04-26T18:16:44.732Z,8.50
2023-04-26T18:19:12.865Z,9.40
2023-04-26T18:21:41.187Z,15.70
2023-04-26T18:24:09.367Z,14.00
2023-04-26T18:26:39.248Z,20.70
2023-04-26T18:29:09.157Z,13.60
2023-04-26T18:31:37.824Z,14.80
2023-04-26T18:34:07.122Z,15.20
2023-04-26T18:36:36.327Z,19.20
2023-04-26T18:39:04.814Z,5.30
2023-04-26T18:41:33.050Z,7.30
2023-04-26T18:44:01.250Z,8.10
2023-04-26T18:46:29.470Z,6.60
2023-04-26T18:48:57.945Z,10.20
2023-04-26T18:51:26.796Z,7.80
2023-04-26T18:53:54.909Z,12.90
2023-04-26T18:56:23.687Z,17.90
2023-04-26T18:58:51.827Z,9.60
2023-04-26T19:01:19.872Z,8.90
2023-04-26T19:03:49.257Z,8.70
2023-04-26T19:06:18.475Z,10.70
2023-04-26T19:08:46.876Z,9.60
2023-04-26T19:11:14.891Z,12.90
2023-04-26T19:13:43.109Z,11.60
2023-04-26T19:16:11.274Z,11.50
2023-04-26T19:18:44.348Z,9.50
2023-04-26T19:21:12.383Z,14.40
2023-04-26T19:23:40.448Z,8.80
2023-04-26T19:26:09.952Z,12.00
2023-04-26T19:28:38.138Z,11.10
2023-04-26T19:31:06.424Z,10.70
2023-04-26T19:33:34.452Z,8.20
2023-04-26T19:36:02.442Z,11.30
2023-04-26T19:38:30.551Z,7.50
2023-04-26T19:40:58.517Z,8.60
2023-04-26T19:43:26.552Z,9.90
2023-04-26T19:45:56.820Z,8.50
2023-04-26T19:48:25.053Z,6.10
2023-04-26T19:50:53.026Z,8.80
2023-04-26T19:53:21.266Z,9.00
2023-04-26T19:55:49.367Z,10.30
2023-04-26T19:58:17.883Z,13.70
2023-04-26T20:00:47.611Z,13.40
2023-04-26T20:03:15.704Z,12.70
2023-04-26T20:05:43.858Z,14.40
2023-04-26T20:08:11.909Z,14.00
2023-04-26T20:10:40.000Z,16.00
2023-04-26T20:13:08.363Z,19.00
2023-04-26T20:15:37.114Z,28.90
2023-04-26T20:18:05.356Z,23.30
2023-04-26T20:20:33.784Z,12.90
2023-04-26T20:23:03.289Z,12.80
2023-04-26T20:25:31.940Z,13.60
2023-04-26T20:28:02.236Z,10.00
2023-04-26T20:30:31.405Z,14.20
2023-04-26T20:33:02.084Z,18.40
2023-04-26T20:35:30.313Z,17.20
2023-04-26T20:37:58.300Z,12.90
2023-04-26T20:40:26.420Z,13.70
2023-04-26T20:42:54.411Z,12.90
2023-04-26T20:45:23.533Z,13.00
2023-04-26T20:47:51.732Z,15.60
2023-04-26T20:50:19.903Z,11.90
2023-04-26T20:52:47.998Z,12.50
2023-04-26T20:55:17.040Z,10.50
2023-04-26T20:57:45.090Z,13.80
2023-04-26T21:00:13.841Z,13.90
2023-04-26T21:02:44.273Z,15.70
2023-04-26T21:05:12.957Z,18.20
2023-04-26T21:07:41.351Z,18.20
2023-04-26T21:10:10.122Z,13.90
2023-04-26T21:12:38.584Z,12.70
2023-04-26T21:15:07.467Z,10.50
2023-04-26T21:17:35.576Z,12.30
2023-04-26T21:20:04.510Z,12.20
2023-04-26T21:22:34.826Z,13.30
2023-04-26T21:25:02.975Z,13.50
2023-04-26T21:27:31.148Z,14.20
2023-04-26T21:29:59.458Z,15.30
2023-04-26T21:32:27.453Z,16.90
2023-04-26T21:34:55.990Z,14.60
2023-04-26T21:37:24.478Z,16.00
2023-04-26T21:39:55.256Z,16.60
2023-04-26T21:42:25.305Z,12.70
2023-04-26T21:44:53.210Z,12.20
2023-04-26T21:47:21.181Z,11.80
2023-04-26T21:49:49.308Z,11.80
2023-04-26T21:52:19.020Z,10.60
2023-04-26T21:54:47.129Z,11.60
2023-04-26T21:57:15.620Z,14.50
2023-04-26T21:59:44.059Z,14.40
2023-04-26T22:02:12.365Z,12.50
2023-04-26T22:04:43.564Z,11.40
2023-04-26T22:07:12.154Z,13.00
2023-04-26T22:09:40.504Z,16.40
2023-04-26T22:12:09.028Z,14.50
2023-04-26T22:14:37.004Z,16.20
2023-04-26T22:17:04.992Z,11.50
2023-04-26T22:19:33.247Z,15.40
2023-04-26T22:22:02.304Z,12.10
2023-04-26T22:24:30.290Z,12.60
2023-04-26T22:26:58.279Z,14.10
2023-04-26T22:29:26.253Z,19.90
2023-04-26T22:31:54.305Z,13.90
2023-04-26T22:34:22.389Z,19.30
2023-04-26T22:36:50.565Z,13.70
2023-04-26T22:39:18.576Z,13.80
2023-04-26T22:41:46.452Z,11.90
2023-04-26T22:44:15.097Z,9.10
2023-04-26T22:46:43.174Z,12.20
2023-04-26T22:49:11.517Z,10.40
2023-04-26T22:51:39.965Z,13.00
2023-04-26T22:54:08.925Z,14.90
2023-04-26T22:56:37.696Z,13.60
2023-04-26T22:59:05.760Z,18.30
2023-04-26T23:01:33.946Z,15.50
2023-04-26T23:04:03.661Z,15.10
2023-04-26T23:06:32.434Z,13.90
2023-04-26T23:09:03.247Z,13.70
2023-04-26T23:11:31.710Z,16.30
2023-04-26T23:14:01.125Z,16.00
2023-04-26T23:16:29.011Z,16.90
2023-04-26T23:18:57.124Z,14.10
2023-04-26T23:21:25.149Z,15.10
2023-04-26T23:23:53.199Z,16.70
2023-04-26T23:26:21.217Z,15.60
2023-04-26T23:28:49.150Z,17.50
2023-04-26T23:31:17.130Z,18.60
2023-04-26T23:33:46.469Z,16.60
2023-04-26T23:36:14.476Z,17.50
2023-04-26T23:38:42.407Z,15.80
2023-04-26T23:41:10.544Z,14.80
2023-04-26T23:43:38.569Z,16.20
2023-04-26T23:46:07.074Z,19.00
2023-04-26T23:48:36.021Z,13.90
2023-04-26T23:51:04.925Z,11.40
2023-04-26T23:53:32.899Z,13.80
2023-04-26T23:56:00.867Z,15.60
2023-04-26T23:58:29.642Z,14.00
